Time;durP1;ratioP1;P1;durP2;ratioP2;P2;SDS_P1;SDS_P2;PMS_P1;PMS_P2;Temp;Humidity;BMP_temperature;BMP_pressure;BME280_temperature;BME280_humidity;BME280_pressure;Samples;Min_cycle;Max_cycle;Signal;HPM_P1;HPM_P2
2022/06/30 00:00:03;;;;;;;;;;;19.70;99.90;;;;;;5212296;28;20044;-62
2022/06/30 00:02:40;;;;;;;2.10;1.60;;;19.70;99.90;;;;;;5196173;28;20228;-61
2022/06/30 00:05:19;;;;;;;2.47;1.83;;;19.70;99.90;;;;;;5193729;28;20316;-61
2022/06/30 00:07:51;;;;;;;3.63;1.90;;;19.80;99.90;;;;;;5202841;28;20147;-62
2022/06/30 00:10:24;;;;;;;2.72;2.08;;;19.70;99.90;;;;;;5198516;28;20376;-62
2022/06/30 00:13:00;;;;;;;2.33;1.75;;;19.70;99.90;;;;;;5213126;28;20447;-62
2022/06/30 00:15:35;;;;;;;4.20;1.70;;;19.70;99.90;;;;;;5195974;28;20034;-61
2022/06/30 00:18:11;;;;;;;1.83;1.70;;;19.80;99.90;;;;;;5191540;28;20052;-60
2022/06/30 00:20:42;;;;;;;2.78;2.03;;;19.80;99.90;;;;;;5192555;28;20030;-61
2022/06/30 00:23:14;;;;;;;2.22;1.60;;;19.90;99.90;;;;;;5187740;28;20025;-61
2022/06/30 00:25:47;;;;;;;5.38;2.47;;;19.90;99.90;;;;;;5196846;28;20042;-61
2022/06/30 00:28:24;;;;;;;2.93;2.27;;;20.10;99.90;;;;;;5207740;28;20027;-62
2022/06/30 00:30:59;;;;;;;2.67;1.88;;;20.00;99.90;;;;;;5218487;28;20053;-62
2022/06/30 00:33:32;;;;;;;2.08;1.88;;;20.10;99.90;;;;;;5209251;28;20238;-62
2022/06/30 00:36:04;;;;;;;2.83;2.10;;;20.20;99.90;;;;;;5196306;28;20249;-62
2022/06/30 00:38:38;;;;;;;2.53;1.92;;;20.10;99.90;;;;;;5195877;28;20055;-61
2022/06/30 00:41:12;;;;;;;2.38;2.00;;;20.20;99.90;;;;;;5195892;28;20027;-62
2022/06/30 00:43:48;;;;;;;2.25;2.05;;;20.20;99.90;;;;;;5195910;28;20035;-62
2022/06/30 00:46:19;;;;;;;2.22;1.90;;;20.30;99.90;;;;;;5196194;28;20203;-62
2022/06/30 00:48:54;;;;;;;2.20;2.00;;;20.40;99.90;;;;;;5197547;28;20029;-62
2022/06/30 00:51:27;;;;;;;6.28;1.95;;;20.50;99.90;;;;;;5179938;28;20203;-62
2022/06/30 00:54:07;;;;;;;4.82;2.10;;;20.50;99.90;;;;;;5214763;28;20202;-62
2022/06/30 00:56:46;;;;;;;4.32;2.33;;;20.50;99.90;;;;;;5215164;28;20055;-62
2022/06/30 00:59:21;;;;;;;2.63;2.20;;;20.50;99.90;;;;;;5215976;28;20035;-62
2022/06/30 01:01:58;;;;;;;4.32;2.30;;;20.50;99.90;;;;;;5215543;28;20049;-63
2022/06/30 01:04:35;;;;;;;3.55;1.90;;;20.50;99.90;;;;;;5191038;28;20058;-62
2022/06/30 01:07:12;;;;;;;2.58;1.90;;;20.40;99.90;;;;;;5167277;28;20067;-63
2022/06/30 01:12:54;;;;;;;2.30;1.90;;;20.30;99.90;;;;;;5200091;28;20027;-62
2022/06/30 01:15:25;;;;;;;2.10;1.80;;;20.20;99.90;;;;;;5214902;28;20060;-62
2022/06/30 01:18:03;;;;;;;4.53;2.50;;;20.30;99.90;;;;;;5184866;28;20064;-62
2022/06/30 01:20:37;;;;;;;2.90;2.28;;;20.30;99.90;;;;;;5200656;28;20051;-62
2022/06/30 01:23:08;;;;;;;2.50;2.03;;;20.10;99.90;;;;;;5202437;28;20310;-62
2022/06/30 01:25:45;;;;;;;4.35;2.20;;;20.10;99.90;;;;;;5220503;28;20196;-62
2022/06/30 01:28:20;;;;;;;2.42;1.65;;;20.60;99.90;;;;;;5225747;28;20112;-62
2022/06/30 01:30:52;;;;;;;3.92;1.92;;;20.70;99.90;;;;;;5214807;28;20041;-62
2022/06/30 01:33:25;;;;;;;7.00;2.00;;;20.60;99.90;;;;;;5199572;28;20414;-62
2022/06/30 01:35:56;;;;;;;2.33;1.85;;;20.50;99.90;;;;;;5215710;28;20219;-62
2022/06/30 01:38:28;;;;;;;2.13;1.77;;;20.30;99.90;;;;;;5214243;28;20133;-62
2022/06/30 01:40:59;;;;;;;2.58;2.05;;;20.20;99.90;;;;;;5216912;28;20040;-62
2022/06/30 01:43:33;;;;;;;2.95;2.13;;;20.10;99.90;;;;;;5199717;28;20036;-63
2022/06/30 01:46:12;;;;;;;3.92;2.38;;;20.00;99.90;;;;;;5202101;28;20345;-63
2022/06/30 01:48:49;;;;;;;4.18;2.10;;;19.90;99.90;;;;;;5213765;28;20372;-61
2022/06/30 01:51:21;;;;;;;2.42;2.22;;;19.90;99.90;;;;;;5211063;28;20036;-62
2022/06/30 01:53:54;;;;;;;2.75;2.30;;;19.80;99.90;;;;;;5214394;28;20029;-61
2022/06/30 01:56:29;;;;;;;3.15;2.03;;;19.70;99.90;;;;;;5197477;28;20036;-61
2022/06/30 01:59:00;;;;;;;3.42;2.35;;;19.60;99.90;;;;;;5198692;28;20239;-62
2022/06/30 02:01:36;;;;;;;3.05;2.03;;;19.60;99.90;;;;;;5214006;28;20262;-62
2022/06/30 02:07:01;;;;;;;2.88;2.00;;;19.50;99.90;;;;;;5191548;28;20233;-62
2022/06/30 02:09:35;;;;;;;3.03;1.92;;;19.50;99.90;;;;;;5217239;28;20047;-62
2022/06/30 02:15:05;;;;;;;5.65;2.30;;;19.50;99.90;;;;;;5239390;28;20029;-62
2022/06/30 02:17:41;;;;;;;3.10;2.13;;;19.60;99.90;;;;;;5221132;28;20044;-61
2022/06/30 02:20:21;;;;;;;2.35;2.03;;;19.70;99.90;;;;;;5201652;28;20056;-62
2022/06/30 02:23:01;;;;;;;2.72;1.98;;;19.70;99.90;;;;;;5181742;28;20043;-62
2022/06/30 02:25:36;;;;;;;3.42;2.17;;;19.80;99.90;;;;;;5202177;28;20039;-61
2022/06/30 02:28:10;;;;;;;1.98;1.77;;;19.90;99.90;;;;;;5225060;28;20383;-61
2022/06/30 02:30:44;;;;;;;1.83;1.60;;;20.00;99.90;;;;;;5219027;28;20036;-61
2022/06/30 02:33:22;;;;;;;4.00;2.03;;;19.90;99.90;;;;;;5217926;28;20066;-62
2022/06/30 02:35:56;;;;;;;2.85;2.22;;;19.90;99.90;;;;;;5201160;28;20032;-62
2022/06/30 02:38:34;;;;;;;2.70;2.30;;;19.80;99.90;;;;;;5216790;28;20037;-62
2022/06/30 02:41:11;;;;;;;2.20;2.00;;;19.90;99.90;;;;;;5218068;28;20329;-60
2022/06/30 02:43:45;;;;;;;2.20;2.00;;;19.80;99.90;;;;;;5219059;28;20025;-62
2022/06/30 02:46:17;;;;;;;3.45;2.25;;;19.80;99.90;;;;;;5219052;28;20312;-61
2022/06/30 02:48:51;;;;;;;3.03;1.95;;;19.90;99.90;;;;;;5219019;28;20044;-61
2022/06/30 02:51:25;;;;;;;2.08;1.88;;;19.80;99.90;;;;;;5218738;28;20312;-63
2022/06/30 02:53:59;;;;;;;1.95;1.70;;;19.80;99.90;;;;;;5217583;28;20029;-61
2022/06/30 02:56:34;;;;;;;;;;;19.90;99.90;;;;;;5211722;28;20139;-61
2022/06/30 02:59:06;;;;;;;1.70;1.55;;;19.90;99.90;;;;;;5217096;28;19909;-62
2022/06/30 03:01:47;;;;;;;3.38;1.92;;;19.90;99.90;;;;;;5175728;28;20039;-61
2022/06/30 03:04:22;;;;;;;2.28;1.65;;;19.80;99.90;;;;;;5207248;28;20441;-61
2022/06/30 03:06:56;;;;;;;2.20;1.70;;;19.80;99.90;;;;;;5200617;28;20045;-61
2022/06/30 03:09:30;;;;;;;2.38;1.60;;;19.80;99.90;;;;;;5217892;28;20043;-62
2022/06/30 03:12:05;;;;;;;4.45;2.00;;;19.90;99.90;;;;;;5201383;28;20047;-61
2022/06/30 03:14:42;;;;;;;2.78;1.85;;;19.80;99.90;;;;;;5216997;28;20218;-62
2022/06/30 03:17:17;;;;;;;2.88;1.92;;;19.90;99.90;;;;;;5217095;28;20340;-62
2022/06/30 03:19:48;;;;;;;2.20;1.80;;;19.90;99.90;;;;;;5218727;28;20059;-61
2022/06/30 03:22:20;;;;;;;2.70;2.00;;;19.90;99.90;;;;;;5218371;28;20326;-62
2022/06/30 03:24:53;;;;;;;3.15;1.88;;;19.90;99.90;;;;;;5217528;28;20047;-63
2022/06/30 03:27:26;;;;;;;2.35;1.88;;;19.80;99.90;;;;;;5228404;28;20039;-62
2022/06/30 03:30:00;;;;;;;2.53;1.90;;;19.80;99.90;;;;;;5201284;28;20032;-63
2022/06/30 03:32:34;;;;;;;3.03;1.80;;;19.90;99.90;;;;;;5200012;28;20270;-61
2022/06/30 03:35:09;;;;;;;2.43;1.60;;;19.90;99.90;;;;;;5219202;28;20045;-62
2022/06/30 03:37:40;;;;;;;2.13;1.75;;;20.00;99.90;;;;;;5200018;28;20574;-63
2022/06/30 03:40:14;;;;;;;6.03;2.70;;;20.10;99.90;;;;;;5196147;28;20191;-63
2022/06/30 03:42:52;;;;;;;2.15;1.95;;;20.20;99.90;;;;;;5179919;28;20025;-63
2022/06/30 03:45:23;;;;;;;2.60;2.35;;;20.40;99.90;;;;;;5181488;28;20250;-63
2022/06/30 03:48:03;;;;;;;3.92;2.28;;;20.40;99.90;;;;;;5207517;28;20131;-63
2022/06/30 03:50:38;;;;;;;2.72;1.80;;;20.50;99.90;;;;;;5223896;28;20028;-62
2022/06/30 03:53:10;;;;;;;2.17;1.67;;;20.60;99.90;;;;;;5218838;28;20043;-63
2022/06/30 03:55:43;;;;;;;2.90;1.90;;;20.70;99.90;;;;;;5218437;28;20039;-62
2022/06/30 03:58:20;;;;;;;2.20;1.85;;;21.00;99.90;;;;;;5218636;28;20233;-61
2022/06/30 04:00:51;;;;;;;3.22;2.00;;;21.30;99.90;;;;;;5218297;28;20037;-62
2022/06/30 04:03:28;;;;;;;1.88;1.45;;;21.40;99.90;;;;;;5219034;28;20063;-63
2022/06/30 04:06:07;;;;;;;3.63;1.60;;;21.50;99.90;;;;;;5206717;28;20070;-63
2022/06/30 04:08:39;;;;;;;2.72;1.83;;;21.60;99.90;;;;;;5218034;28;20425;-61
2022/06/30 04:11:12;;;;;;;2.25;1.52;;;21.80;99.90;;;;;;5220936;28;20040;-63
2022/06/30 04:13:44;;;;;;;2.05;1.77;;;22.00;99.90;;;;;;5200780;28;20059;-63
2022/06/30 04:16:18;;;;;;;2.20;1.70;;;22.30;99.90;;;;;;5217498;28;20249;-63
2022/06/30 04:18:49;;;;;;;3.22;1.65;;;22.40;99.90;;;;;;5201318;28;20041;-63
2022/06/30 04:21:21;;;;;;;2.17;1.48;;;22.30;99.90;;;;;;5218628;28;20043;-63
2022/06/30 04:23:57;;;;;;;4.18;1.83;;;22.20;99.90;;;;;;5217638;28;20041;-63
2022/06/30 04:26:28;;;;;;;2.97;1.70;;;22.30;99.90;;;;;;5231233;28;20021;-63
2022/06/30 04:29:03;;;;;;;2.10;1.60;;;22.40;99.90;;;;;;5241428;28;20041;-62
2022/06/30 04:34:27;;;;;;;3.72;2.22;;;23.00;99.90;;;;;;5240756;28;20045;-63
2022/06/30 04:37:00;;;;;;;3.25;2.95;;;23.20;99.90;;;;;;5224630;28;20059;-62
2022/06/30 04:39:31;;;;;;;1.52;1.20;;;23.40;99.90;;;;;;5240025;28;20032;-62
2022/06/30 04:42:06;;;;;;;1.80;1.50;;;23.50;99.90;;;;;;5241384;28;20055;-62
2022/06/30 04:44:43;;;;;;;1.98;1.63;;;23.40;99.90;;;;;;5223732;28;20035;-63
2022/06/30 04:47:20;;;;;;;1.90;1.73;;;23.10;99.90;;;;;;5240381;28;20340;-63
2022/06/30 04:49:51;;;;;;;6.25;1.70;;;23.40;99.90;;;;;;5240603;28;20025;-64
2022/06/30 04:52:25;;;;;;;3.83;1.73;;;23.80;99.90;;;;;;5239471;28;20036;-62
2022/06/30 04:55:00;;;;;;;1.45;1.35;;;24.40;99.90;;;;;;5256720;28;20043;-63
2022/06/30 04:57:31;;;;;;;1.70;1.40;;;24.90;99.90;;;;;;5240992;28;20025;-64
2022/06/30 05:00:06;;;;;;;2.17;1.33;;;24.70;99.90;;;;;;5239406;28;20035;-62
2022/06/30 05:02:37;;;;;;;1.20;1.10;;;24.90;99.90;;;;;;5256958;28;20045;-62
2022/06/30 05:05:14;;;;;;;1.73;1.60;;;25.30;99.90;;;;;;5238999;28;20092;-62
2022/06/30 05:07:46;;;;;;;1.60;1.05;;;25.50;99.90;;;;;;5240179;28;20036;-63
2022/06/30 05:10:20;;;;;;;1.83;1.50;;;25.70;99.90;;;;;;5257043;28;20188;-62
2022/06/30 05:13:03;;;;;;;1.90;1.65;;;25.60;99.90;;;;;;5239874;28;20033;-63
2022/06/30 05:15:38;;;;;;;4.40;2.15;;;25.50;99.90;;;;;;5257532;28;20037;-63
2022/06/30 05:18:15;;;;;;;2.25;2.05;;;25.30;99.90;;;;;;5240256;28;20047;-63
2022/06/30 05:20:46;;;;;;;2.83;1.75;;;25.20;99.90;;;;;;5241709;28;20047;-62
2022/06/30 05:23:20;;;;;;;2.05;1.83;;;24.70;99.90;;;;;;5257057;28;20024;-61
2022/06/30 05:26:31;;;;;;;3.25;1.60;;;24.20;99.90;;;;;;5240434;28;20360;-63
2022/06/30 05:29:05;;;;;;;2.47;1.95;;;23.50;99.90;;;;;;5250455;28;20033;-62
2022/06/30 05:31:41;;;;;;;1.88;1.52;;;23.40;99.90;;;;;;5250458;28;20039;-63
2022/06/30 05:34:13;;;;;;;3.38;1.70;;;23.70;99.90;;;;;;5241127;28;20043;-61
2022/06/30 05:36:47;;;;;;;2.28;1.52;;;23.70;99.90;;;;;;5237972;28;20047;-62
2022/06/30 05:39:24;;;;;;;1.77;1.60;;;23.60;99.90;;;;;;5232027;28;20033;-60
2022/06/30 05:42:03;;;;;;;3.78;1.80;;;23.60;99.90;;;;;;5210924;28;20495;-61
2022/06/30 05:44:35;;;;;;;2.53;1.88;;;23.60;99.90;;;;;;5231137;28;20276;-62
2022/06/30 05:47:06;;;;;;;1.75;1.55;;;23.40;99.90;;;;;;5232466;28;20029;-60
2022/06/30 05:49:41;;;;;;;1.48;1.30;;;23.70;99.90;;;;;;5232220;28;20221;-60
2022/06/30 05:52:20;;;;;;;;;;;24.10;99.90;;;;;;5232843;28;20210;-61
2022/06/30 05:54:52;;;;;;;2.13;1.60;;;24.30;99.90;;;;;;5214659;28;19909;-62
2022/06/30 05:57:28;;;;;;;1.80;1.30;;;24.10;99.90;;;;;;5251924;28;20036;-63
2022/06/30 06:00:00;;;;;;;2.03;1.58;;;24.10;99.90;;;;;;5248929;28;20040;-62
2022/06/30 06:02:34;;;;;;;4.00;1.70;;;24.50;99.90;;;;;;5251479;28;20110;-61
2022/06/30 06:05:06;;;;;;;2.30;1.55;;;24.60;99.90;;;;;;5242162;28;20047;-61
2022/06/30 06:07:37;;;;;;;3.47;2.20;;;24.90;99.90;;;;;;5243090;28;20228;-60
2022/06/30 06:10:15;;;;;;;4.63;1.52;;;25.10;99.90;;;;;;5256456;28;20036;-62
2022/06/30 06:12:47;;;;;;;2.10;1.67;;;25.10;99.90;;;;;;5200481;28;20239;-62
2022/06/30 06:15:18;;;;;;;2.10;1.60;;;24.30;99.90;;;;;;5201789;28;20033;-61
2022/06/30 06:17:53;;;;;;;2.33;1.38;;;24.20;99.90;;;;;;5216982;28;20045;-63
2022/06/30 06:20:25;;;;;;;1.90;1.60;;;24.60;99.90;;;;;;5219940;28;20268;-62
2022/06/30 06:22:58;;;;;;;1.88;1.67;;;24.90;99.90;;;;;;5218787;28;20036;-63
2022/06/30 06:25:32;;;;;;;2.42;1.75;;;25.20;99.90;;;;;;5194079;28;20386;-62
2022/06/30 06:30:56;;;;;;;1.58;1.42;;;24.70;99.90;;;;;;5214187;28;20029;-63
2022/06/30 06:33:28;;;;;;;1.38;1.27;;;24.60;99.90;;;;;;5200200;28;20367;-61
2022/06/30 06:36:00;;;;;;;3.55;1.73;;;24.20;99.90;;;;;;5216708;28;20029;-62
2022/06/30 06:38:34;;;;;;;1.90;1.50;;;23.90;99.90;;;;;;5216893;28;20049;-63
2022/06/30 06:41:11;;;;;;;3.10;1.98;;;23.70;99.90;;;;;;5215786;28;20321;-61
2022/06/30 06:43:43;;;;;;;2.17;1.52;;;23.40;99.90;;;;;;5237906;28;20036;-61
2022/06/30 06:46:26;;;;;;;2.35;1.55;;;23.20;99.90;;;;;;5222728;28;20033;-62
2022/06/30 06:49:10;;;;;;;5.60;2.15;;;23.10;99.90;;;;;;5202484;28;20037;-62
2022/06/30 06:51:42;;;;;;;6.10;2.20;;;23.40;99.90;;;;;;5199079;28;20041;-62
2022/06/30 06:54:14;;;;;;;2.03;1.80;;;23.70;99.90;;;;;;5184949;28;20043;-62
2022/06/30 06:56:47;;;;;;;1.45;1.35;;;23.40;99.90;;;;;;5174165;28;20039;-62
2022/06/30 06:59:23;;;;;;;1.70;1.60;;;23.50;99.90;;;;;;5214571;28;20033;-61
2022/06/30 07:01:55;;;;;;;3.20;1.73;;;23.90;99.90;;;;;;5220544;28;20025;-62
2022/06/30 07:04:30;;;;;;;1.67;1.55;;;23.90;99.90;;;;;;5174708;28;20319;-62
2022/06/30 07:07:05;;;;;;;2.13;1.70;;;23.70;99.90;;;;;;5163612;28;20435;-60
2022/06/30 07:09:36;;;;;;;;;;;23.60;99.90;;;;;;5197191;28;20035;-61
2022/06/30 07:12:13;;;;;;;2.53;1.95;;;23.60;99.90;;;;;;5179069;28;19909;-60
2022/06/30 07:14:46;;;;;;;2.60;1.70;;;23.60;99.90;;;;;;5212270;28;20047;-63
2022/06/30 07:17:20;;;;;;;1.48;1.35;;;23.80;99.90;;;;;;5210628;28;20037;-60
2022/06/30 07:19:54;;;;;;;1.73;1.50;;;23.80;99.90;;;;;;5216648;28;20029;-61
2022/06/30 07:22:26;;;;;;;3.60;1.80;;;23.90;99.90;;;;;;5216679;28;20304;-60
2022/06/30 07:24:57;;;;;;;2.17;2.00;;;24.10;99.90;;;;;;5217685;28;20400;-61
2022/06/30 07:27:36;;;;;;;1.77;1.60;;;24.30;99.90;;;;;;5215856;28;20348;-61
2022/06/30 07:30:11;;;;;;;2.88;1.77;;;24.70;99.90;;;;;;5207479;28;20429;-62
2022/06/30 07:32:43;;;;;;;1.63;1.52;;;25.70;99.90;;;;;;5225107;28;20276;-62
2022/06/30 07:35:17;;;;;;;2.35;1.77;;;25.90;99.90;;;;;;5217144;28;20047;-60
2022/06/30 07:37:49;;;;;;;4.45;1.88;;;25.50;99.90;;;;;;5219245;28;20029;-62
2022/06/30 07:40:23;;;;;;;2.72;1.77;;;25.50;99.90;;;;;;5216191;28;20050;-62
2022/06/30 07:42:55;;;;;;;1.90;1.50;;;25.90;99.90;;;;;;5216258;28;20027;-62
2022/06/30 07:45:32;;;;;;;2.38;1.83;;;26.00;99.90;;;;;;5217965;28;20361;-62
2022/06/30 07:48:04;;;;;;;1.92;1.42;;;26.00;99.90;;;;;;5211181;28;20052;-62
2022/06/30 07:50:37;;;;;;;2.10;1.58;;;26.10;99.90;;;;;;5198603;28;20206;-62
2022/06/30 07:53:13;;;;;;;2.00;1.50;;;26.40;99.90;;;;;;5216746;28;20262;-61
2022/06/30 07:55:47;;;;;;;2.30;1.50;;;26.70;99.90;;;;;;5217496;28;20051;-63
2022/06/30 07:58:19;;;;;;;2.25;1.52;;;26.80;99.90;;;;;;5216965;28;20041;-62
2022/06/30 08:00:51;;;;;;;2.28;1.85;;;27.30;99.90;;;;;;5232686;28;20035;-62
2022/06/30 08:03:26;;;;;;;1.60;1.35;;;27.30;99.90;;;;;;5227000;28;20344;-61
2022/06/30 08:06:04;;;;;;;1.65;1.55;;;27.30;99.90;;;;;;5230711;28;20066;-63
2022/06/30 08:08:35;;;;;;;1.67;1.50;;;26.70;99.90;;;;;;5194640;28;20059;-61
2022/06/30 08:11:08;;;;;;;2.50;1.70;;;26.10;99.90;;;;;;5235464;28;20247;-61
2022/06/30 08:13:40;;;;;;;2.28;1.42;;;26.30;99.90;;;;;;5233128;28;20025;-61
2022/06/30 08:16:15;;;;;;;1.77;1.50;;;26.80;99.90;;;;;;5221688;28;20024;-61
2022/06/30 08:18:49;;;;;;;1.77;1.40;;;27.10;99.90;;;;;;5221109;28;20029;-62
2022/06/30 08:21:20;;;;;;;2.03;1.70;;;27.30;99.90;;;;;;5189839;28;20317;-61
2022/06/30 08:23:55;;;;;;;1.75;1.40;;;27.30;99.90;;;;;;5232549;28;20032;-61
2022/06/30 08:26:34;;;;;;;2.22;1.60;;;27.30;99.90;;;;;;5218829;28;20025;-62
2022/06/30 08:29:12;;;;;;;1.55;1.40;;;27.20;99.90;;;;;;5228579;28;20487;-61
2022/06/30 08:31:44;;;;;;;1.75;1.45;;;27.40;99.90;;;;;;5200354;28;20316;-61
2022/06/30 08:34:18;;;;;;;2.72;1.70;;;27.70;99.90;;;;;;5200089;28;20036;-63
2022/06/30 08:36:50;;;;;;;1.50;1.40;;;27.80;99.90;;;;;;5221810;28;20037;-62
2022/06/30 08:42:20;;;;;;;1.50;1.40;;;28.20;99.90;;;;;;5201903;28;20022;-63
2022/06/30 08:47:49;;;;;;;2.83;1.52;;;28.40;99.90;;;;;;5216246;28;20025;-63
2022/06/30 08:50:20;;;;;;;2.65;1.63;;;28.30;99.90;;;;;;5216767;28;20051;-61
2022/06/30 08:52:56;;;;;;;2.08;1.88;;;28.60;99.90;;;;;;5218830;28;20037;-61
2022/06/30 08:55:34;;;;;;;2.20;1.92;;;27.90;99.90;;;;;;5210024;28;20029;-63
2022/06/30 08:58:20;;;;;;;2.78;1.80;;;28.10;99.90;;;;;;5206109;28;20041;-62
2022/06/30 09:00:52;;;;;;;2.08;1.85;;;28.20;99.90;;;;;;5220137;28;20037;-62
2022/06/30 09:03:26;;;;;;;2.72;1.95;;;27.70;99.90;;;;;;5221116;28;20214;-62
2022/06/30 09:05:58;;;;;;;2.92;1.95;;;27.60;99.90;;;;;;5211162;28;20053;-61
2022/06/30 09:08:29;;;;;;;2.35;1.70;;;27.60;99.90;;;;;;5203989;28;20332;-62
2022/06/30 09:11:04;;;;;;;2.85;1.70;;;28.40;99.90;;;;;;5202819;28;20427;-61
2022/06/30 09:13:50;;;;;;;1.35;1.30;;;28.20;99.90;;;;;;5202157;28;20033;-61
2022/06/30 09:16:29;;;;;;;2.28;1.60;;;28.30;99.90;;;;;;5217056;28;20033;-62
2022/06/30 09:19:03;;;;;;;2.53;1.80;;;29.30;99.90;;;;;;5221187;28;20021;-61
2022/06/30 09:21:35;;;;;;;4.25;2.05;;;29.90;99.90;;;;;;5202772;28;20029;-61
2022/06/30 09:24:22;;;;;;;1.40;1.30;;;29.60;99.90;;;;;;5220351;28;20037;-62
2022/06/30 09:27:17;;;;;;;15.40;2.25;;;30.50;99.90;;;;;;5220622;28;20021;-62
2022/06/30 09:30:09;;;;;;;2.00;1.50;;;30.80;99.90;;;;;;5197604;28;20045;-61
2022/06/30 09:33:07;;;;;;;2.88;1.65;;;30.10;99.90;;;;;;5216900;28;20037;-63
2022/06/30 09:35:40;;;;;;;3.22;1.80;;;29.70;99.90;;;;;;5202251;28;20329;-63
2022/06/30 09:38:14;;;;;;;2.05;1.58;;;29.60;99.90;;;;;;5228653;28;20037;-63
2022/06/30 09:41:04;;;;;;;3.85;1.65;;;30.10;99.90;;;;;;5222117;28;20051;-60
2022/06/30 09:43:37;;;;;;;1.90;1.80;;;30.30;99.90;;;;;;5240322;28;20031;-61
2022/06/30 09:46:11;;;;;;;1.45;1.35;;;30.20;99.90;;;;;;5221461;28;20051;-61
2022/06/30 09:48:42;;;;;;;2.33;1.63;;;30.60;99.90;;;;;;5202853;28;20334;-64
2022/06/30 09:51:17;;;;;;;2.50;1.70;;;29.90;99.90;;;;;;5220908;28;20036;-61
2022/06/30 09:54:10;;;;;;;1.80;1.45;;;29.80;99.90;;;;;;5218486;28;20060;-61
2022/06/30 09:56:41;;;;;;;4.03;1.88;;;30.70;99.90;;;;;;5218486;28;20380;-61
2022/06/30 09:59:26;;;;;;;1.85;1.50;;;29.80;99.90;;;;;;5202415;28;20254;-61
2022/06/30 10:02:01;;;;;;;1.95;1.75;;;30.60;99.90;;;;;;5202762;28;20024;-62
2022/06/30 10:04:53;;;;;;;1.85;1.63;;;31.70;99.90;;;;;;5209621;28;20374;-61
2022/06/30 10:07:28;;;;;;;1.73;1.60;;;31.90;99.90;;;;;;5202354;28;20035;-62
2022/06/30 10:10:09;;;;;;;1.73;1.63;;;32.10;99.90;;;;;;5240220;28;20055;-62
2022/06/30 10:12:45;;;;;;;3.67;1.63;;;32.50;99.90;;;;;;5238705;28;20226;-61
2022/06/30 10:19:47;;;;;;;2.50;1.70;;;31.60;99.90;;;;;;5237259;28;20210;-61
2022/06/30 10:22:22;;;;;;;2.38;1.90;;;32.00;99.90;;;;;;5219358;28;20035;-61
2022/06/30 10:25:00;;;;;;;2.65;2.20;;;31.70;99.90;;;;;;5218763;28;20033;-62
2022/06/30 10:27:37;;;;;;;3.08;2.47;;;31.50;99.90;;;;;;5193852;28;20041;-61
2022/06/30 10:30:23;;;;;;;2.10;1.90;;;31.80;99.90;;;;;;5204316;28;20021;-62
2022/06/30 10:33:09;;;;;;;2.83;1.98;;;32.40;99.90;;;;;;5234129;28;20306;-61
2022/06/30 10:36:20;;;;;;;1.90;1.80;;;32.80;99.90;;;;;;5208294;28;20219;-62
2022/06/30 10:39:32;;;;;;;4.22;2.50;;;32.90;99.90;;;;;;5189124;28;20037;-63
2022/06/30 10:42:07;;;;;;;2.40;2.20;;;33.00;99.90;;;;;;5214913;28;20033;-62
2022/06/30 10:44:39;;;;;;;4.75;2.00;;;32.60;99.90;;;;;;5214372;28;20026;-63
2022/06/30 10:47:16;;;;;;;4.47;2.17;;;32.80;99.90;;;;;;5214529;28;20236;-61
2022/06/30 10:49:56;;;;;;;2.25;1.70;;;33.80;99.90;;;;;;5184606;28;20329;-62
2022/06/30 10:52:34;;;;;;;2.33;2.03;;;34.70;99.90;;;;;;5218379;28;20310;-63
2022/06/30 10:55:07;;;;;;;1.80;1.70;;;35.00;99.90;;;;;;5215363;28;20037;-61
2022/06/30 10:58:16;;;;;;;2.25;2.00;;;33.60;99.90;;;;;;5196668;28;20025;-62
2022/06/30 11:01:06;;;;;;;2.20;2.00;;;33.20;99.90;;;;;;5155524;28;20030;-65
2022/06/30 11:03:38;;;;;;;2.22;2.03;;;33.90;99.90;;;;;;5172058;28;20440;-61
2022/06/30 11:06:16;;;;;;;2.83;1.90;;;34.30;99.90;;;;;;5149808;28;20365;-63
2022/06/30 11:08:57;;;;;;;1.98;1.77;;;34.90;99.90;;;;;;5158980;28;20044;-63
2022/06/30 11:11:51;;;;;;;2.13;1.83;;;37.00;99.90;;;;;;5175587;28;20052;-62
2022/06/30 11:14:27;;;;;;;4.03;2.15;;;36.00;99.90;;;;;;5175130;28;20033;-61
2022/06/30 11:17:02;;;;;;;4.57;2.67;;;36.00;99.90;;;;;;5177196;28;20030;-62
2022/06/30 11:19:35;;;;;;;2.33;2.10;;;35.30;99.90;;;;;;5157790;28;20037;-62
2022/06/30 11:22:18;;;;;;;2.45;2.08;;;34.80;99.90;;;;;;5176195;28;20377;-63
2022/06/30 11:24:53;;;;;;;3.25;2.30;;;34.50;99.90;;;;;;5159746;28;20036;-62
2022/06/30 11:27:30;;;;;;;2.40;2.20;;;34.60;99.90;;;;;;5159930;28;20030;-62
2022/06/30 11:30:08;;;;;;;2.67;2.30;;;36.00;99.90;;;;;;5155973;28;20249;-61
2022/06/30 11:32:40;;;;;;;8.02;2.47;;;33.80;99.90;;;;;;5157146;28;20042;-61
2022/06/30 11:35:11;;;;;;;4.60;2.15;;;31.90;99.90;;;;;;5178804;28;20041;-66
2022/06/30 11:37:43;;;;;;;2.58;1.95;;;33.00;99.90;;;;;;5194712;28;20045;-63
2022/06/30 11:40:20;;;;;;;5.00;2.20;;;36.10;99.90;;;;;;5195490;28;20041;-63
2022/06/30 11:42:54;;;;;;;2.30;2.00;;;36.80;99.90;;;;;;5216708;28;20043;-62
2022/06/30 11:45:31;;;;;;;2.45;2.22;;;37.40;99.90;;;;;;5217812;28;20314;-63
2022/06/30 11:48:03;;;;;;;2.17;1.83;;;37.40;99.90;;;;;;5215791;28;20021;-60
2022/06/30 11:50:40;;;;;;;4.30;1.93;;;36.10;99.90;;;;;;5218492;28;20040;-61
2022/06/30 11:53:12;;;;;;;2.45;2.13;;;35.70;99.90;;;;;;5187171;28;20385;-62
2022/06/30 11:55:46;;;;;;;2.58;2.00;;;36.00;99.90;;;;;;5207242;28;20031;-62
2022/06/30 11:58:29;;;;;;;2.83;1.98;;;35.90;99.90;;;;;;5202575;28;20229;-63
2022/06/30 12:01:15;;;;;;;4.20;2.40;;;35.80;99.90;;;;;;5197314;28;20037;-63
2022/06/30 12:03:57;;;;;;;3.00;2.03;;;38.10;99.90;;;;;;5219846;28;20290;-65
2022/06/30 12:06:36;;;;;;;2.88;2.20;;;39.90;99.90;;;;;;5188355;28;20059;-62
2022/06/30 12:09:11;;;;;;;4.10;2.10;;;41.00;99.90;;;;;;5196318;28;20128;-63
2022/06/30 12:11:50;;;;;;;2.58;1.92;;;41.30;99.90;;;;;;5195631;28;20040;-61
2022/06/30 12:14:27;;;;;;;2.50;2.30;;;40.20;99.90;;;;;;5196514;28;20037;-64
2022/06/30 12:17:07;;;;;;;1.95;1.85;;;41.30;99.90;;;;;;5196438;28;20041;-63
2022/06/30 12:19:43;;;;;;;3.80;2.42;;;42.00;99.90;;;;;;5179653;28;20048;-64
2022/06/30 12:22:18;;;;;;;2.42;2.22;;;43.30;99.90;;;;;;5182961;28;20270;-65
2022/06/30 12:24:55;;;;;;;2.95;2.28;;;44.50;99.90;;;;;;5183002;28;20495;-64
2022/06/30 12:27:45;;;;;;;2.67;2.47;;;43.70;99.90;;;;;;5196572;28;20032;-64
2022/06/30 12:30:35;;;;;;;4.15;2.10;;;40.80;99.90;;;;;;5178342;28;20045;-62
2022/06/30 12:33:20;;;;;;;2.80;2.60;;;40.50;99.90;;;;;;5181798;28;20448;-63
2022/06/30 12:36:05;;;;;;;2.60;2.40;;;40.80;99.90;;;;;;5196539;28;20214;-62
2022/06/30 12:38:36;;;;;;;4.20;2.38;;;39.10;99.90;;;;;;5196787;28;20030;-64
2022/06/30 12:41:13;;;;;;;4.85;2.47;;;39.10;99.90;;;;;;5198056;28;20108;-62
2022/06/30 12:43:52;;;;;;;2.13;2.03;;;41.10;99.90;;;;;;5196274;28;20037;-62
2022/06/30 12:46:46;;;;;;;2.78;2.58;;;43.30;99.90;;;;;;5163985;28;20223;-62
2022/06/30 12:49:27;;;;;;;2.83;2.63;;;43.90;99.90;;;;;;5197803;28;20044;-63
2022/06/30 12:51:59;;;;;;;2.78;2.58;;;42.60;99.90;;;;;;5201715;28;20033;-62
2022/06/30 12:54:33;;;;;;;2.83;2.28;;;42.60;99.90;;;;;;5220754;28;20030;-62
2022/06/30 12:57:05;;;;;;;2.63;2.20;;;44.10;99.90;;;;;;5222073;28;20025;-63
2022/06/30 12:59:50;;;;;;;3.45;2.65;;;44.00;99.90;;;;;;5220822;28;20025;-62
2022/06/30 13:02:39;;;;;;;2.83;2.17;;;43.80;99.90;;;;;;5185662;28;20048;-62
2022/06/30 13:05:13;;;;;;;3.22;2.60;;;44.50;99.90;;;;;;5198399;28;20048;-62
2022/06/30 13:07:47;;;;;;;2.67;2.47;;;43.60;99.90;;;;;;5197977;28;20034;-62
2022/06/30 13:11:04;;;;;;;3.38;3.03;;;44.60;99.90;;;;;;5215420;28;20033;-63
2022/06/30 13:13:17;;;;;;;2.80;2.60;;;45.70;99.90;;;;;;5212793;28;20313;-61
2022/06/30 13:15:51;;;;;;;2.30;2.20;;;45.60;99.90;;;;;;5216714;28;20325;-66
2022/06/30 13:18:25;;;;;;;3.33;2.72;;;42.70;99.90;;;;;;5216651;28;20033;-65
2022/06/30 13:20:57;;;;;;;2.92;2.42;;;42.70;99.90;;;;;;5201333;28;20044;-62
2022/06/30 13:23:33;;;;;;;2.38;2.15;;;43.80;99.90;;;;;;5195303;28;20241;-62
2022/06/30 13:26:08;;;;;;;2.35;2.13;;;44.60;99.70;;;;;;5236441;28;20165;-62
2022/06/30 13:28:41;;;;;;;10.98;2.90;;;43.40;99.70;;;;;;5221879;28;20059;-62
2022/06/30 13:31:13;;;;;;;;;;;42.80;99.50;;;;;;5237457;28;20492;-62
2022/06/30 13:33:46;;;;;;;2.40;2.20;;;44.10;99.20;;;;;;5225450;28;20174;-63
2022/06/30 13:36:21;;;;;;;3.35;2.42;;;44.50;98.40;;;;;;5199404;28;20037;-62
2022/06/30 13:38:55;;;;;;;4.15;2.92;;;44.30;98.60;;;;;;5215572;28;20307;-64
2022/06/30 13:41:31;;;;;;;4.22;2.78;;;45.10;97.80;;;;;;5215034;28;20032;-62
2022/06/30 13:44:12;;;;;;;2.90;2.65;;;45.40;96.90;;;;;;5216127;28;20048;-64
2022/06/30 13:46:51;;;;;;;3.38;2.63;;;46.40;96.10;;;;;;5222809;28;20239;-65
2022/06/30 13:49:22;;;;;;;2.60;2.40;;;46.30;96.40;;;;;;5236126;28;20029;-62
2022/06/30 13:51:54;;;;;;;2.72;2.53;;;46.70;96.10;;;;;;5217659;28;20298;-62
2022/06/30 13:54:28;;;;;;;3.13;2.83;;;46.30;95.80;;;;;;5228483;28;20253;-64
2022/06/30 13:57:07;;;;;;;2.65;2.45;;;47.60;95.10;;;;;;5219406;28;20031;-65